Time;durP1;ratioP1;P1;durP2;ratioP2;P2;SDS_P1;SDS_P2;PMS_P1;PMS_P2;Temp;Humidity;BMP_temperature;BMP_pressure;BME280_temperature;BME280_humidity;BME280_pressure;Samples;Min_cycle;Max_cycle;Signal;HPM_P1;HPM_P2
2023/12/25 00:00:21;;;;;;;16.57;2.40;;;11.90;99.90;;;;;;4994607;28;20441;-92
2023/12/25 00:02:46;;;;;;;16.73;2.33;;;11.50;99.90;;;;;;5008872;28;20440;-91
2023/12/25 00:05:12;;;;;;;18.13;2.53;;;11.50;99.90;;;;;;5012064;28;20415;-92
2023/12/25 00:07:37;;;;;;;17.40;2.50;;;11.40;99.90;;;;;;5011233;28;20407;-90
2023/12/25 00:10:03;;;;;;;19.15;2.42;;;11.50;99.90;;;;;;5013585;28;20465;-90
2023/12/25 00:12:29;;;;;;;14.63;1.85;;;11.40;99.90;;;;;;5011448;28;20403;-92
2023/12/25 00:14:59;;;;;;;16.13;1.70;;;11.50;99.90;;;;;;5029054;28;20776;-93
2023/12/25 00:17:27;;;;;;;15.57;2.13;;;11.50;99.90;;;;;;5010891;28;20395;-92
2023/12/25 00:19:53;;;;;;;17.77;2.30;;;11.50;99.90;;;;;;5012556;28;20415;-90
2023/12/25 00:22:19;;;;;;;18.13;2.35;;;11.70;99.90;;;;;;5028152;28;20410;-92
2023/12/25 00:24:44;;;;;;;14.93;2.33;;;12.00;99.90;;;;;;5014087;28;20407;-93
2023/12/25 00:27:10;;;;;;;17.60;2.20;;;11.70;99.90;;;;;;5013360;28;20411;-91
2023/12/25 00:29:39;;;;;;;16.75;2.20;;;11.70;99.90;;;;;;5012658;28;20410;-93
2023/12/25 00:32:05;;;;;;;15.43;1.67;;;11.60;99.90;;;;;;5013402;28;20790;-93
2023/12/25 00:34:30;;;;;;;10.83;1.73;;;11.50;99.90;;;;;;5012647;28;20415;-91
2023/12/25 00:36:56;;;;;;;13.47;1.50;;;11.70;99.90;;;;;;5013590;28;20449;-90
2023/12/25 00:39:31;;;;;;;12.27;1.35;;;11.50;99.90;;;;;;5013049;28;21082;-88
2023/12/25 00:41:56;;;;;;;13.33;1.40;;;11.50;99.90;;;;;;5028945;28;20414;-90
2023/12/25 00:44:27;;;;;;;9.63;1.30;;;11.50;99.90;;;;;;5028312;28;20414;-93
2023/12/25 00:46:53;;;;;;;10.50;1.35;;;11.50;99.90;;;;;;5031131;28;20771;-91
2023/12/25 00:49:19;;;;;;;10.25;1.10;;;11.40;99.90;;;;;;5012113;28;20480;-91
2023/12/25 00:51:45;;;;;;;12.13;1.47;;;11.20;99.90;;;;;;5041284;28;20397;-91
2023/12/25 00:54:11;;;;;;;10.50;1.50;;;11.50;99.90;;;;;;5031179;28;20428;-90
2023/12/25 00:56:37;;;;;;;9.88;1.17;;;11.50;99.90;;;;;;5033729;28;20463;-91
2023/12/25 00:59:05;;;;;;;11.02;1.33;;;11.70;99.90;;;;;;5033181;28;20421;-92
2023/12/25 01:01:33;;;;;;;13.02;1.50;;;11.80;99.90;;;;;;5022800;28;20435;-90
2023/12/25 01:03:59;;;;;;;10.97;1.13;;;11.40;99.90;;;;;;5026346;28;20418;-93
2023/12/25 01:06:26;;;;;;;11.37;1.23;;;11.20;99.90;;;;;;5028960;28;20425;-92
2023/12/25 01:08:52;;;;;;;11.35;1.30;;;11.50;99.90;;;;;;5014376;28;20403;-93
2023/12/25 01:11:18;;;;;;;11.15;1.20;;;11.60;99.90;;;;;;4995787;28;20473;-92
2023/12/25 01:13:44;;;;;;;9.75;1.23;;;11.30;99.90;;;;;;5012290;28;20403;-93
2023/12/25 01:16:09;;;;;;;9.48;1.20;;;11.30;99.90;;;;;;4998524;28;20556;-88
2023/12/25 01:18:35;;;;;;;14.77;1.37;;;11.90;99.90;;;;;;5016744;28;20406;-90
2023/12/25 01:21:01;;;;;;;9.77;1.20;;;11.30;99.90;;;;;;5015861;28;20419;-92
2023/12/25 01:23:26;;;;;;;13.17;1.93;;;11.30;99.90;;;;;;5013835;28;20948;-90
2023/12/25 01:25:54;;;;;;;12.57;1.40;;;11.10;99.90;;;;;;5013342;28;20402;-91
2023/12/25 01:28:22;;;;;;;11.67;1.40;;;11.10;99.90;;;;;;5016218;28;20403;-93
2023/12/25 01:30:48;;;;;;;13.38;1.80;;;11.50;99.90;;;;;;4999269;28;20418;-90
2023/12/25 01:33:13;;;;;;;11.55;1.40;;;10.70;99.90;;;;;;5014231;28;20431;-91
2023/12/25 01:35:45;;;;;;;14.57;1.73;;;11.20;99.90;;;;;;5012551;28;20431;-94
2023/12/25 01:38:11;;;;;;;10.82;1.30;;;11.00;99.90;;;;;;5017738;28;20419;-91
2023/12/25 01:40:38;;;;;;;9.30;1.50;;;11.40;99.90;;;;;;5032273;28;20505;-87
2023/12/25 01:43:04;;;;;;;12.50;1.33;;;11.00;99.90;;;;;;5017740;28;20430;-92
2023/12/25 01:45:30;;;;;;;10.33;1.80;;;11.10;99.90;;;;;;5014946;28;20418;-89
2023/12/25 01:47:55;;;;;;;11.10;1.33;;;11.00;99.90;;;;;;5019902;28;20759;-91
2023/12/25 01:50:21;;;;;;;10.90;1.37;;;10.90;99.90;;;;;;5017354;28;20929;-92
2023/12/25 01:52:49;;;;;;;12.85;1.20;;;10.90;99.90;;;;;;5018707;28;20831;-92
2023/12/25 01:55:18;;;;;;;11.82;1.40;;;11.10;99.90;;;;;;5018493;28;20908;-93
2023/12/25 01:57:44;;;;;;;12.50;1.77;;;10.70;99.90;;;;;;5033140;28;20923;-93
2023/12/25 02:00:11;;;;;;;10.60;1.08;;;10.60;99.90;;;;;;5018772;28;20497;-91
2023/12/25 02:02:48;;;;;;;13.38;1.80;;;10.70;99.90;;;;;;5015825;28;20458;-91
2023/12/25 02:05:23;;;;;;;12.60;1.73;;;10.80;99.90;;;;;;5018127;28;20415;-93
2023/12/25 02:08:03;;;;;;;12.10;1.63;;;10.80;99.90;;;;;;5017557;28;20460;-91
2023/12/25 02:10:30;;;;;;;9.82;1.20;;;10.80;99.90;;;;;;5017767;28;20494;-90
2023/12/25 02:12:57;;;;;;;12.30;1.08;;;10.90;99.90;;;;;;5015449;28;20418;-88
2023/12/25 02:15:24;;;;;;;11.43;1.50;;;11.00;99.90;;;;;;5019381;28;20407;-89
2023/12/25 02:17:51;;;;;;;9.45;1.00;;;11.00;99.90;;;;;;5053818;28;20390;-90
2023/12/25 02:20:18;;;;;;;12.38;1.63;;;10.80;99.90;;;;;;5050501;28;20436;-90
2023/12/25 02:22:44;;;;;;;11.40;1.60;;;10.80;99.90;;;;;;5016884;28;20512;-94
2023/12/25 02:25:44;;;;;;;13.40;1.50;;;10.90;99.90;;;;;;5019809;28;20409;-88
2023/12/25 02:28:09;;;;;;;11.20;1.40;;;10.80;99.90;;;;;;5036721;28;20572;-92
2023/12/25 02:30:35;;;;;;;12.67;1.67;;;11.20;99.90;;;;;;5019308;28;21376;-93
2023/12/25 02:33:04;;;;;;;14.43;1.90;;;10.80;99.90;;;;;;5018146;28;20865;-89
2023/12/25 02:35:34;;;;;;;15.07;1.95;;;10.70;99.90;;;;;;5035951;28;20942;-93
2023/12/25 02:37:59;;;;;;;15.80;2.17;;;11.00;99.90;;;;;;5020662;28;20824;-91
2023/12/25 02:40:25;;;;;;;17.05;2.00;;;10.80;99.90;;;;;;5017709;28;20444;-91
2023/12/25 02:42:51;;;;;;;15.77;2.63;;;10.90;99.90;;;;;;5016800;28;20429;-93
2023/12/25 02:45:19;;;;;;;14.10;2.17;;;10.70;99.90;;;;;;5019074;28;20505;-92
2023/12/25 02:47:45;;;;;;;14.40;1.60;;;10.70;99.90;;;;;;5017735;28;20417;-90
2023/12/25 02:50:11;;;;;;;17.58;2.42;;;10.70;99.90;;;;;;5016639;28;20405;-93
2023/12/25 02:52:40;;;;;;;17.07;2.07;;;10.70;99.90;;;;;;5019272;28;20442;-92
2023/12/25 02:55:06;;;;;;;19.52;2.13;;;10.70;99.90;;;;;;5035224;28;20758;-92
2023/12/25 02:57:31;;;;;;;15.60;1.80;;;10.80;99.90;;;;;;5021588;28;20416;-92
2023/12/25 02:59:57;;;;;;;15.43;1.85;;;10.90;99.90;;;;;;5017816;28;20405;-89
2023/12/25 03:02:27;;;;;;;14.73;1.90;;;10.90;99.90;;;;;;5020126;28;20408;-93
2023/12/25 03:04:53;;;;;;;13.82;1.60;;;11.00;99.90;;;;;;5020149;28;20401;-92
2023/12/25 03:07:19;;;;;;;12.38;1.60;;;11.10;99.90;;;;;;5036126;28;20401;-92
2023/12/25 03:09:44;;;;;;;12.03;1.37;;;11.10;99.90;;;;;;5018734;28;20444;-92
2023/12/25 03:12:10;;;;;;;16.57;2.03;;;11.00;99.90;;;;;;5021262;28;20439;-90
2023/12/25 03:14:40;;;;;;;11.85;1.20;;;10.90;99.90;;;;;;5020526;28;20405;-94
2023/12/25 03:17:15;;;;;;;11.35;1.38;;;10.90;99.90;;;;;;5052905;28;20777;-93
2023/12/25 03:19:41;;;;;;;12.77;1.58;;;11.10;99.90;;;;;;5023550;28;20401;-93
2023/12/25 03:22:15;;;;;;;12.37;1.70;;;10.60;99.90;;;;;;5018894;28;20401;-92
2023/12/25 03:24:44;;;;;;;13.98;1.20;;;10.70;99.90;;;;;;5037040;28;20409;-91
2023/12/25 03:27:13;;;;;;;12.93;1.33;;;10.70;99.90;;;;;;5021141;28;20424;-93
2023/12/25 03:29:38;;;;;;;12.53;1.43;;;10.70;99.90;;;;;;5019407;28;20416;-94
2023/12/25 03:32:04;;;;;;;13.47;1.70;;;10.60;99.90;;;;;;5036784;28;20777;-90
2023/12/25 03:34:30;;;;;;;11.02;1.08;;;10.60;99.90;;;;;;5019439;28;20417;-91
2023/12/25 03:36:56;;;;;;;11.70;1.10;;;10.70;99.90;;;;;;5021889;28;20409;-92
2023/12/25 03:39:21;;;;;;;13.17;1.60;;;10.70;99.90;;;;;;5021234;28;20428;-90
2023/12/25 03:41:53;;;;;;;13.07;1.53;;;11.20;99.90;;;;;;5034182;28;20417;-92
2023/12/25 03:44:19;;;;;;;12.95;1.55;;;10.60;99.90;;;;;;5019579;28;20937;-90
2023/12/25 03:46:47;;;;;;;11.32;1.05;;;10.90;99.90;;;;;;5035732;28;20401;-93
2023/12/25 03:49:15;;;;;;;13.82;1.45;;;10.70;99.90;;;;;;5039333;28;20404;-91
2023/12/25 03:51:43;;;;;;;13.50;1.73;;;10.90;99.90;;;;;;5017342;28;20781;-91
2023/12/25 03:54:09;;;;;;;13.85;1.35;;;10.70;99.90;;;;;;5035690;28;20407;-92
2023/12/25 03:56:35;;;;;;;11.80;1.40;;;10.80;99.90;;;;;;5018733;28;20458;-92
2023/12/25 03:59:03;;;;;;;13.73;1.67;;;10.90;99.90;;;;;;5017835;28;20416;-92
2023/12/25 04:01:31;;;;;;;14.82;1.77;;;10.60;99.90;;;;;;5015631;28;20450;-92
2023/12/25 04:04:02;;;;;;;12.43;1.77;;;11.00;99.90;;;;;;5017931;28;20528;-94
2023/12/25 04:06:28;;;;;;;12.43;1.53;;;10.80;99.90;;;;;;5019290;28;20473;-90
2023/12/25 04:08:54;;;;;;;13.57;1.70;;;10.80;99.90;;;;;;5033992;28;20499;-93
2023/12/25 04:11:24;;;;;;;14.93;1.45;;;11.50;99.90;;;;;;5018737;28;20405;-89
2023/12/25 04:14:15;;;;;;;13.25;2.22;;;10.80;99.90;;;;;;5014817;28;20424;-93
2023/12/25 04:16:44;;;;;;;13.05;1.70;;;10.80;99.90;;;;;;5015111;28;20425;-93
2023/12/25 04:19:10;;;;;;;12.80;1.60;;;10.80;99.90;;;;;;5017044;28;20879;-91
2023/12/25 04:21:42;;;;;;;14.40;1.65;;;10.80;99.90;;;;;;5019171;28;20413;-90
2023/12/25 04:24:10;;;;;;;12.10;1.40;;;11.00;99.90;;;;;;5015548;28;20514;-94
2023/12/25 04:26:36;;;;;;;14.23;1.52;;;10.60;99.90;;;;;;5016867;28;20405;-92
2023/12/25 04:29:07;;;;;;;11.25;1.13;;;11.00;99.90;;;;;;5019288;28;20888;-93
2023/12/25 04:31:33;;;;;;;12.90;1.42;;;10.70;99.90;;;;;;5020246;28;20453;-89
2023/12/25 04:33:59;;;;;;;15.00;1.77;;;10.90;99.90;;;;;;5020954;28;20404;-90
2023/12/25 04:36:24;;;;;;;14.77;1.93;;;11.30;99.90;;;;;;5017987;28;20777;-92
2023/12/25 04:38:50;;;;;;;15.20;1.55;;;10.50;99.90;;;;;;5017198;28;20401;-89
2023/12/25 04:41:23;;;;;;;15.77;1.80;;;11.00;99.90;;;;;;5014965;28;20405;-90
2023/12/25 04:43:55;;;;;;;15.32;1.65;;;10.50;99.90;;;;;;5017004;28;20441;-94
2023/12/25 04:46:20;;;;;;;14.05;1.65;;;10.40;99.90;;;;;;5039980;28;20440;-90
2023/12/25 04:48:49;;;;;;;15.30;1.90;;;11.00;99.90;;;;;;5015397;28;20409;-94
2023/12/25 04:51:15;;;;;;;16.42;2.10;;;10.40;99.90;;;;;;5016203;28;20497;-90
2023/12/25 04:53:41;;;;;;;15.18;1.70;;;10.50;99.90;;;;;;5014861;28;20410;-89
2023/12/25 04:56:10;;;;;;;15.83;2.10;;;10.50;99.90;;;;;;5017693;28;20474;-92
2023/12/25 04:58:37;;;;;;;16.65;2.13;;;10.30;99.90;;;;;;5016793;28;20730;-94
2023/12/25 05:01:04;;;;;;;14.37;1.43;;;10.30;99.90;;;;;;5016587;28;20459;-92
2023/12/25 05:03:30;;;;;;;13.63;1.80;;;10.30;99.90;;;;;;5018005;28;20468;-89
2023/12/25 05:05:56;;;;;;;14.77;1.67;;;10.50;99.90;;;;;;5016440;28;21152;-89
2023/12/25 05:08:28;;;;;;;13.88;1.50;;;11.00;99.90;;;;;;5015255;28;20409;-93
2023/12/25 05:10:54;;;;;;;12.57;1.40;;;10.40;99.90;;;;;;5019901;28;20410;-93
2023/12/25 05:13:23;;;;;;;13.00;1.35;;;10.40;99.90;;;;;;5025407;28;20412;-93
2023/12/25 05:15:49;;;;;;;13.57;1.63;;;10.20;99.90;;;;;;5019276;28;20420;-90
2023/12/25 05:18:14;;;;;;;16.25;1.55;;;10.40;99.90;;;;;;5021138;28;20495;-89
2023/12/25 05:20:40;;;;;;;11.60;1.70;;;10.10;99.90;;;;;;5019133;28;20451;-91
2023/12/25 05:23:11;;;;;;;15.23;1.80;;;10.60;99.90;;;;;;5018019;28;20488;-93
2023/12/25 05:25:37;;;;;;;14.10;1.80;;;10.40;99.90;;;;;;5017659;28;20909;-88
2023/12/25 05:28:03;;;;;;;14.37;1.80;;;10.30;99.90;;;;;;5021222;28;20405;-93
2023/12/25 05:30:28;;;;;;;15.40;1.30;;;10.30;99.90;;;;;;5021987;28;20930;-93
2023/12/25 05:32:54;;;;;;;12.95;1.73;;;10.20;99.90;;;;;;5019929;28;20412;-90
2023/12/25 05:35:20;;;;;;;11.82;1.60;;;11.00;99.90;;;;;;5017885;28;20798;-90
2023/12/25 05:37:45;;;;;;;14.40;2.07;;;10.50;99.90;;;;;;5018573;28;20429;-89
2023/12/25 05:40:11;;;;;;;14.85;1.55;;;10.40;99.90;;;;;;5022333;28;20417;-93
2023/12/25 05:42:54;;;;;;;15.70;2.17;;;10.20;99.90;;;;;;5020485;28;20429;-93
2023/12/25 05:45:23;;;;;;;17.48;1.48;;;10.20;99.90;;;;;;5005260;28;20412;-94
2023/12/25 05:47:54;;;;;;;13.70;1.93;;;10.20;99.90;;;;;;5026009;28;20763;-92
2023/12/25 05:50:23;;;;;;;13.43;1.40;;;10.10;99.90;;;;;;5025039;28;20397;-94
2023/12/25 05:52:51;;;;;;;14.77;2.00;;;10.10;99.90;;;;;;5017908;28;20445;-90
2023/12/25 05:55:17;;;;;;;16.70;1.92;;;10.10;99.90;;;;;;5023524;28;20416;-91
2023/12/25 05:57:46;;;;;;;13.57;1.80;;;10.20;99.90;;;;;;5017212;28;20406;-93
2023/12/25 06:00:12;;;;;;;14.57;2.23;;;10.00;99.90;;;;;;5019261;28;20981;-90
2023/12/25 06:02:38;;;;;;;17.20;2.00;;;10.10;99.90;;;;;;5018791;28;20447;-92
2023/12/25 06:05:03;;;;;;;16.87;2.03;;;10.10;99.90;;;;;;5051486;28;20436;-90
2023/12/25 06:07:29;;;;;;;18.60;1.87;;;10.00;99.90;;;;;;5020830;28;20668;-91
2023/12/25 06:09:55;;;;;;;17.88;2.63;;;10.00;99.90;;;;;;5018303;28;20435;-90
2023/12/25 06:12:23;;;;;;;15.95;1.95;;;10.00;99.90;;;;;;5022150;28;20951;-94
2023/12/25 06:14:49;;;;;;;15.17;2.00;;;10.20;99.90;;;;;;5020327;28;20900;-90
2023/12/25 06:17:15;;;;;;;16.00;1.80;;;10.20;99.90;;;;;;5020034;28;20845;-90
2023/12/25 06:19:41;;;;;;;18.15;2.47;;;10.10;99.90;;;;;;5019848;28;20412;-93
2023/12/25 06:22:11;;;;;;;16.00;1.90;;;10.30;99.90;;;;;;5018905;28;20419;-94
2023/12/25 06:24:38;;;;;;;18.67;2.65;;;10.10;99.90;;;;;;5032245;28;20473;-91
2023/12/25 06:27:04;;;;;;;13.67;2.10;;;10.20;99.90;;;;;;5013610;28;20518;-92
2023/12/25 06:29:30;;;;;;;15.33;2.30;;;10.20;99.90;;;;;;5014986;28;20402;-91
2023/12/25 06:31:55;;;;;;;14.13;2.28;;;10.30;99.90;;;;;;5016248;28;20485;-90
2023/12/25 06:34:21;;;;;;;17.73;2.87;;;10.10;99.90;;;;;;5016256;28;20436;-90
2023/12/25 06:36:51;;;;;;;16.63;2.20;;;10.30;99.90;;;;;;5017754;28;20430;-93
2023/12/25 06:39:17;;;;;;;14.88;1.92;;;10.10;99.90;;;;;;5018125;28;20427;-92
2023/12/25 06:41:42;;;;;;;12.63;2.05;;;10.10;99.90;;;;;;5019687;28;20816;-92
2023/12/25 06:44:08;;;;;;;14.37;2.10;;;10.10;99.90;;;;;;5018597;28;20433;-93
2023/12/25 06:46:36;;;;;;;14.53;1.53;;;10.30;99.90;;;;;;5015328;28;20452;-93
2023/12/25 06:49:02;;;;;;;15.60;2.03;;;10.20;99.90;;;;;;5020054;28;20482;-94
2023/12/25 06:51:43;;;;;;;;;;;;;;;;;;;;;
2023/12/25 06:54:09;;;;;;;17.15;2.60;;;10.10;99.90;;;;;;5032271;28;20459;-88
2023/12/25 06:56:35;;;;;;;15.00;1.88;;;10.00;99.90;;;;;;5033346;28;20902;-90
2023/12/25 06:59:00;;;;;;;18.63;1.93;;;10.30;99.90;;;;;;5018601;28;20896;-89
2023/12/25 07:01:26;;;;;;;14.23;1.70;;;9.90;99.90;;;;;;5014808;28;20410;-90
2023/12/25 07:03:52;;;;;;;12.25;1.30;;;9.90;99.90;;;;;;5016780;28;20788;-90
2023/12/25 07:06:20;;;;;;;11.60;1.70;;;9.90;99.90;;;;;;5017354;28;20405;-91
2023/12/25 07:08:46;;;;;;;15.82;1.70;;;10.00;99.90;;;;;;5017105;28;20470;-90
2023/12/25 07:11:12;;;;;;;14.18;1.95;;;9.90;99.90;;;;;;5049471;28;20823;-90
2023/12/25 07:13:42;;;;;;;11.90;1.42;;;9.80;99.90;;;;;;5049817;28;20406;-94
2023/12/25 07:16:08;;;;;;;16.25;2.20;;;10.00;99.90;;;;;;5020795;28;20579;-92
2023/12/25 07:18:33;;;;;;;14.00;1.98;;;9.70;99.90;;;;;;5019374;28;20440;-91
2023/12/25 07:20:59;;;;;;;12.03;1.47;;;10.00;99.90;;;;;;5017993;28;20407;-89
2023/12/25 07:23:25;;;;;;;14.40;1.33;;;9.90;99.90;;;;;;5017133;28;20429;-89
2023/12/25 07:25:50;;;;;;;16.63;2.00;;;10.20;99.90;;;;;;5017845;28;20502;-91
2023/12/25 07:28:16;;;;;;;13.43;1.23;;;10.00;99.90;;;;;;5019883;28;20413;-93
2023/12/25 07:30:45;;;;;;;12.73;1.30;;;9.90;99.90;;;;;;5019702;28;20405;-92
2023/12/25 07:33:11;;;;;;;13.05;1.50;;;10.30;99.90;;;;;;5021763;28;20437;-90
2023/12/25 07:35:36;;;;;;;12.65;1.55;;;9.80;99.90;;;;;;5018529;28;20405;-92
2023/12/25 07:38:02;;;;;;;13.88;1.73;;;10.10;99.90;;;;;;5017013;28;20421;-90
2023/12/25 07:40:28;;;;;;;15.23;2.07;;;9.90;99.90;;;;;;5017933;28;20761;-92
2023/12/25 07:42:53;;;;;;;11.77;1.57;;;10.20;99.90;;;;;;5021507;28;20413;-90
2023/12/25 07:45:26;;;;;;;12.52;1.92;;;10.30;99.90;;;;;;5018590;28;20427;-92
2023/12/25 07:47:52;;;;;;;17.35;1.95;;;10.00;99.90;;;;;;5015923;28;20409;-91
2023/12/25 07:50:18;;;;;;;14.85;1.73;;;10.20;99.90;;;;;;5018641;28;20415;-95
2023/12/25 07:52:44;;;;;;;15.18;2.20;;;10.10;99.90;;;;;;5038264;28;20411;-89
2023/12/25 07:55:13;;;;;;;13.83;1.87;;;10.10;99.90;;;;;;5021014;28;20441;-94
2023/12/25 07:58:01;;;;;;;13.27;1.40;;;10.10;99.90;;;;;;5019029;28;20502;-95
2023/12/25 08:00:30;;;;;;;14.17;1.60;;;10.00;99.90;;;;;;5038248;28;20478;-94
2023/12/25 08:03:01;;;;;;;10.90;0.95;;;10.20;99.90;;;;;;5019181;28;20466;-93
2023/12/25 08:05:26;;;;;;;7.97;0.50;;;10.10;99.90;;;;;;5023493;28;20402;-93
2023/12/25 08:07:52;;;;;;;8.67;0.70;;;9.90;99.90;;;;;;5020240;28;20414;-89
2023/12/25 08:10:18;;;;;;;6.32;0.55;;;10.40;99.90;;;;;;5022421;28;20396;-92
2023/12/25 08:12:44;;;;;;;6.40;0.43;;;10.20;99.90;;;;;;5015682;28;20394;-93
2023/12/25 08:15:13;;;;;;;5.30;0.30;;;10.10;99.90;;;;;;5049418;28;20968;-92
2023/12/25 08:17:48;;;;;;;5.25;0.47;;;9.90;99.90;;;;;;5015322;28;20437;-93
2023/12/25 08:20:13;;;;;;;6.77;0.60;;;9.70;99.90;;;;;;5029199;28;20954;-89
2023/12/25 08:22:55;;;;;;;8.00;0.50;;;9.70;99.90;;;;;;5037828;28;20406;-94
2023/12/25 08:25:20;;;;;;;5.07;0.70;;;9.20;99.90;;;;;;4996718;28;20409;-91
2023/12/25 08:27:46;;;;;;;7.53;0.70;;;9.70;99.90;;;;;;5015800;28;20412;-90
2023/12/25 08:30:12;;;;;;;6.95;0.60;;;9.60;99.90;;;;;;5012779;28;20840;-92
2023/12/25 08:32:38;;;;;;;9.80;0.95;;;9.50;99.90;;;;;;5019791;28;20477;-91
2023/12/25 08:35:04;;;;;;;13.00;0.97;;;9.70;99.90;;;;;;5014984;28;20405;-91
2023/12/25 08:37:29;;;;;;;10.98;1.00;;;9.40;99.90;;;;;;5031863;28;20439;-91
2023/12/25 08:39:55;;;;;;;9.33;0.80;;;9.20;99.90;;;;;;5011741;28;20916;-92
2023/12/25 08:42:21;;;;;;;6.90;1.00;;;9.30;99.90;;;;;;5013871;28;20499;-91
2023/12/25 08:45:04;;;;;;;11.63;0.60;;;9.40;99.90;;;;;;5031529;28;20916;-93
2023/12/25 08:47:30;;;;;;;11.02;1.20;;;9.20;99.90;;;;;;5020761;28;20405;-92
2023/12/25 08:49:59;;;;;;;7.63;0.73;;;9.20;99.90;;;;;;5012779;28;20455;-93
2023/12/25 08:52:24;;;;;;;10.48;0.77;;;9.20;99.90;;;;;;5011477;28;20440;-90
2023/12/25 08:54:50;;;;;;;10.05;0.77;;;9.10;99.90;;;;;;5013670;28;20472;-91
2023/12/25 08:57:34;;;;;;;8.27;0.88;;;9.30;99.90;;;;;;5011965;28;20448;-94
2023/12/25 09:00:04;;;;;;;8.25;0.90;;;9.10;99.90;;;;;;5026339;28;20820;-94
2023/12/25 09:02:30;;;;;;;10.70;1.10;;;9.10;99.90;;;;;;5027187;28;20804;-89
2023/12/25 09:04:55;;;;;;;10.70;0.77;;;9.10;99.90;;;;;;5011707;28;20402;-90
2023/12/25 09:07:21;;;;;;;9.63;0.80;;;9.20;99.90;;;;;;5012465;28;20411;-90
2023/12/25 09:09:47;;;;;;;11.68;1.17;;;9.10;99.90;;;;;;5012410;28;20416;-92
2023/12/25 09:12:13;;;;;;;12.83;1.57;;;9.50;99.90;;;;;;5014321;28;20423;-91
2023/12/25 09:14:39;;;;;;;12.85;1.02;;;9.40;99.90;;;;;;5012162;28;20565;-93
2023/12/25 09:17:05;;;;;;;10.05;0.90;;;9.20;99.90;;;;;;5012730;28;20499;-90
2023/12/25 09:19:30;;;;;;;9.90;1.00;;;9.20;99.90;;;;;;5011861;28;20412;-92
2023/12/25 09:21:58;;;;;;;10.65;0.90;;;9.60;99.90;;;;;;5011793;28;21747;-90
2023/12/25 09:24:24;;;;;;;9.55;0.50;;;9.20;99.90;;;;;;5015003;28;21013;-90
2023/12/25 09:26:51;;;;;;;13.75;1.40;;;9.40;99.90;;;;;;5012430;28;20493;-90
2023/12/25 09:29:17;;;;;;;14.10;1.10;;;9.30;99.90;;;;;;5012158;28;20436;-89
2023/12/25 09:31:43;;;;;;;15.15;1.55;;;9.30;99.90;;;;;;5011379;28;20445;-90
2023/12/25 09:34:08;;;;;;;9.05;0.88;;;9.30;99.90;;;;;;5012592;28;21300;-88
2023/12/25 09:36:34;;;;;;;11.87;1.10;;;9.30;99.90;;;;;;5011603;28;20407;-92
2023/12/25 09:39:00;;;;;;;11.68;1.10;;;9.50;99.90;;;;;;5008944;28;20423;-90
2023/12/25 09:41:32;;;;;;;11.82;0.85;;;9.70;99.90;;;;;;5009312;28;20752;-91
2023/12/25 09:44:06;;;;;;;13.00;1.10;;;10.10;99.90;;;;;;5014434;28;20495;-94
2023/12/25 09:46:32;;;;;;;11.35;1.08;;;9.60;99.90;;;;;;5029471;28;20493;-91
2023/12/25 09:48:58;;;;;;;9.70;1.00;;;9.70;99.90;;;;;;5012286;28;20951;-90
2023/12/25 09:51:27;;;;;;;12.63;1.65;;;9.80;99.90;;;;;;5012761;28;20558;-90
2023/12/25 09:53:53;;;;;;;11.57;1.25;;;9.80;99.90;;;;;;5028445;28;20447;-91
2023/12/25 09:56:21;;;;;;;13.55;1.00;;;9.90;99.90;;;;;;5011893;28;20485;-90
2023/12/25 09:59:02;;;;;;;13.25;1.42;;;9.70;99.90;;;;;;5016574;28;20401;-92
2023/12/25 10:01:28;;;;;;;9.45;1.20;;;9.60;99.90;;;;;;5047983;28;20417;-93
2023/12/25 10:03:54;;;;;;;12.18;1.30;;;10.30;99.90;;;;;;5047867;28;20436;-90
2023/12/25 10:06:20;;;;;;;11.88;1.15;;;9.70;99.90;;;;;;5014377;28;20409;-91
2023/12/25 10:08:47;;;;;;;8.20;1.27;;;9.80;99.90;;;;;;5015358;28;20409;-91
2023/12/25 10:11:15;;;;;;;13.23;1.58;;;9.70;99.90;;;;;;5013583;28;20807;-92
2023/12/25 10:13:41;;;;;;;10.18;1.52;;;10.20;99.90;;;;;;5015213;28;20412;-92
2023/12/25 10:16:07;;;;;;;14.35;2.22;;;9.80;99.90;;;;;;5013926;28;20421;-92
2023/12/25 10:18:34;;;;;;;10.60;1.63;;;9.80;99.90;;;;;;5015500;28;20519;-90
2023/12/25 10:21:01;;;;;;;9.57;1.40;;;10.20;99.90;;;;;;5014494;28;20398;-89
2023/12/25 10:23:29;;;;;;;13.00;1.80;;;10.10;99.90;;;;;;5014432;28;20918;-90
2023/12/25 10:25:55;;;;;;;18.65;1.77;;;10.10;99.90;;;;;;5015197;28;20408;-91
2023/12/25 10:28:26;;;;;;;15.07;1.63;;;9.80;99.90;;;;;;5014487;28;20428;-91
2023/12/25 10:31:02;;;;;;;15.05;1.50;;;10.20;99.90;;;;;;5015247;28;20406;-91
2023/12/25 10:33:29;;;;;;;12.43;1.45;;;10.00;99.90;;;;;;4994920;28;20418;-91
2023/12/25 10:36:05;;;;;;;12.90;1.38;;;10.00;99.90;;;;;;5010978;28;20430;-90
2023/12/25 10:38:35;;;;;;;16.93;2.10;;;10.00;99.90;;;;;;5014191;28;20514;-92
2023/12/25 10:41:25;;;;;;;13.82;1.75;;;10.10;99.90;;;;;;5014039;28;20410;-91
2023/12/25 10:43:52;;;;;;;13.82;1.73;;;10.20;99.90;;;;;;5014800;28;20429;-90
2023/12/25 10:46:26;;;;;;;16.67;2.15;;;10.20;99.90;;;;;;5013848;28;20406;-92
2023/12/25 10:48:53;;;;;;;16.38;2.10;;;10.20;99.90;;;;;;5030466;28;20410;-92
2023/12/25 10:51:40;;;;;;;12.18;1.45;;;10.20;99.90;;;;;;5014526;28;20794;-92
2023/12/25 10:54:09;;;;;;;17.77;1.88;;;10.30;99.90;;;;;;5013553;28;20420;-90
2023/12/25 10:56:36;;;;;;;13.88;1.48;;;10.40;99.90;;;;;;5014752;28;20405;-90
2023/12/25 10:59:16;;;;;;;15.68;1.67;;;10.40;99.90;;;;;;5013097;28;20453;-90
2023/12/25 11:01:48;;;;;;;11.10;1.80;;;10.30;99.90;;;;;;5014561;28;20405;-91
2023/12/25 11:04:18;;;;;;;16.05;1.88;;;10.30;99.90;;;;;;5013639;28;20429;-89
2023/12/25 11:06:49;;;;;;;16.73;2.42;;;10.60;99.90;;;;;;5013497;28;20420;-90
2023/12/25 11:09:17;;;;;;;15.02;1.52;;;10.30;99.90;;;;;;5013417;28;20428;-90
2023/12/25 11:11:44;;;;;;;14.50;1.75;;;10.50;99.90;;;;;;5013044;28;20406;-90
2023/12/25 11:14:11;;;;;;;13.98;1.50;;;10.70;99.90;;;;;;5014328;28;20416;-90
2023/12/25 11:16:37;;;;;;;17.00;1.83;;;10.50;99.90;;;;;;5013111;28;20913;-88
2023/12/25 11:19:04;;;;;;;14.85;2.00;;;10.60;99.90;;;;;;5030464;28;20805;-90
2023/12/25 11:21:33;;;;;;;12.85;1.92;;;10.60;99.90;;;;;;5013651;28;20401;-90
2023/12/25 11:24:00;;;;;;;14.82;1.90;;;10.50;99.90;;;;;;5013176;28;20532;-90
2023/12/25 11:26:31;;;;;;;17.05;2.30;;;11.20;99.90;;;;;;5014010;28;20401;-89
2023/12/25 11:29:06;;;;;;;16.27;2.13;;;10.50;99.90;;;;;;5013079;28;20441;-90
2023/12/25 11:31:42;;;;;;;15.90;2.35;;;10.60;99.90;;;;;;5013397;28;20413;-89
2023/12/25 11:34:18;;;;;;;17.58;2.53;;;10.70;99.90;;;;;;5013346;28;20409;-88
2023/12/25 11:36:45;;;;;;;19.33;2.57;;;10.60;99.90;;;;;;5010376;28;20510;-90
2023/12/25 11:39:10;;;;;;;22.70;2.92;;;10.50;99.90;;;;;;5042338;28;20405;-87
2023/12/25 11:41:37;;;;;;;18.02;2.60;;;10.30;99.90;;;;;;5012777;28;20408;-89
2023/12/25 11:44:06;;;;;;;19.80;2.80;;;10.30;99.90;;;;;;5013596;28;20838;-89
2023/12/25 11:46:34;;;;;;;18.25;2.45;;;10.30;99.90;;;;;;5012714;28;20444;-89
2023/12/25 11:49:01;;;;;;;20.25;2.78;;;10.30;99.90;;;;;;5013369;28;20398;-88
2023/12/25 11:51:29;;;;;;;27.15;3.47;;;10.40;99.90;;;;;;5012635;28;20401;-89
2023/12/25 11:54:01;;;;;;;22.90;3.47;;;10.40;99.90;;;;;;5011416;28;20420;-88
2023/12/25 11:56:31;;;;;;;21.53;2.73;;;10.10;99.90;;;;;;5012218;28;20412;-86
2023/12/25 11:58:57;;;;;;;27.30;3.00;;;10.20;99.90;;;;;;5010857;28;20416;-87
2023/12/25 12:01:23;;;;;;;24.63;3.05;;;10.20;99.90;;;;;;5012280;28;20436;-88
2023/12/25 12:03:51;;;;;;;21.88;2.97;;;10.50;99.90;;;;;;5010370;28;20425;-87
2023/12/25 12:06:17;;;;;;;22.60;3.90;;;10.20;99.90;;;;;;5012227;28;20932;-86
2023/12/25 12:08:43;;;;;;;24.98;3.55;;;10.30;99.90;;;;;;5011884;28;20413;-88
2023/12/25 12:11:11;;;;;;;25.40;4.07;;;10.70;99.90;;;;;;5012512;28;20492;-88
2023/12/25 12:13:37;;;;;;;26.63;3.63;;;10.60;99.90;;;;;;5012832;28;20414;-88
2023/12/25 12:16:04;;;;;;;20.55;2.95;;;10.90;99.90;;;;;;5008732;28;20407;-88
2023/12/25 12:18:30;;;;;;;23.23;4.38;;;10.30;99.90;;;;;;5009632;28;20403;-88
2023/12/25 12:20:55;;;;;;;24.23;4.43;;;10.50;99.90;;;;;;5024194;28;20476;-89
2023/12/25 12:23:21;;;;;;;23.63;4.15;;;10.30;99.90;;;;;;5025878;28;20914;-88
2023/12/25 12:25:47;;;;;;;25.17;4.93;;;10.40;99.90;;;;;;5008749;28;20418;-87
2023/12/25 12:28:16;;;;;;;22.30;3.88;;;10.40;99.90;;;;;;5008735;28;20502;-88
2023/12/25 12:30:42;;;;;;;22.75;4.38;;;10.80;99.90;;;;;;5008765;28;20468;-87
2023/12/25 12:33:09;;;;;;;22.50;3.58;;;10.50;99.90;;;;;;5008610;28;20479;-89
2023/12/25 12:35:34;;;;;;;21.10;3.60;;;10.50;99.90;;;;;;5009046;28;20796;-89
2023/12/25 12:38:01;;;;;;;20.63;3.10;;;10.40;99.90;;;;;;5008417;28;20755;-88
2023/12/25 12:40:27;;;;;;;25.17;4.13;;;10.40;99.90;;;;;;5009214;28;20403;-90
2023/12/25 12:42:53;;;;;;;22.17;4.00;;;10.40;99.90;;;;;;5008735;28;20563;-88